Time;durP1;ratioP1;P1;durP2;ratioP2;P2;SDS_P1;SDS_P2;PMS_P1;PMS_P2;Temp;Humidity;BMP_temperature;BMP_pressure;BME280_temperature;BME280_humidity;BME280_pressure;Samples;Min_cycle;Max_cycle;Signal;HPM_P1;HPM_P2
2022/01/29 00:02:27;;;;;;;7.97;4.20;;;23.00;36.70;;;;;;6057357;28;80494;-64
2022/01/29 00:05:28;;;;;;;8.00;3.90;;;23.00;36.80;;;;;;6065178;28;80809;-63
2022/01/29 00:08:28;;;;;;;9.00;4.68;;;23.00;36.70;;;;;;6055184;28;80682;-64
2022/01/29 00:11:35;;;;;;;7.60;4.43;;;23.00;36.80;;;;;;6056659;28;80475;-64
2022/01/29 00:14:35;;;;;;;10.05;4.75;;;23.10;36.80;;;;;;6057786;28;81451;-64
2022/01/29 00:17:36;;;;;;;9.77;5.43;;;23.10;36.90;;;;;;6059925;28;80491;-64
2022/01/29 00:20:36;;;;;;;8.77;4.70;;;23.10;36.80;;;;;;6060644;28;84956;-65
2022/01/29 00:23:37;;;;;;;9.63;4.55;;;23.10;36.80;;;;;;6059066;28;80618;-64
2022/01/29 00:26:37;;;;;;;10.80;5.15;;;23.10;36.90;;;;;;6062920;28;82685;-65
2022/01/29 00:29:43;;;;;;;11.18;4.63;;;23.10;36.80;;;;;;6067088;28;80684;-65
2022/01/29 00:32:43;;;;;;;9.10;4.90;;;23.10;36.80;;;;;;6055860;28;80566;-64
2022/01/29 00:35:44;;;;;;;11.20;5.28;;;23.10;36.70;;;;;;6064453;28;81532;-64
2022/01/29 00:38:44;;;;;;;8.65;4.50;;;23.10;36.80;;;;;;6063625;28;80888;-64
2022/01/29 00:41:45;;;;;;;9.00;4.53;;;23.10;36.80;;;;;;6064678;28;81441;-64
2022/01/29 00:44:45;;;;;;;10.20;5.30;;;23.00;36.70;;;;;;6065134;28;80867;-64
2022/01/29 00:47:46;;;;;;;7.88;4.70;;;23.00;36.60;;;;;;6064689;28;80870;-64
2022/01/29 00:50:46;;;;;;;9.43;5.28;;;23.00;36.60;;;;;;6064236;28;80627;-64
2022/01/29 00:53:47;;;;;;;9.13;4.45;;;23.00;36.40;;;;;;6069455;28;80936;-65
2022/01/29 00:56:47;;;;;;;9.30;4.97;;;23.00;36.30;;;;;;6065497;28;80775;-65
2022/01/29 00:59:48;;;;;;;11.57;5.05;;;23.00;36.20;;;;;;6065584;28;80906;-64
2022/01/29 01:02:48;;;;;;;8.80;4.50;;;22.90;36.20;;;;;;6063481;28;81487;-64
2022/01/29 01:05:49;;;;;;;8.27;4.72;;;22.90;36.20;;;;;;6065929;28;80803;-64
2022/01/29 01:08:49;;;;;;;8.68;4.32;;;22.90;35.80;;;;;;6057961;28;80203;-64
2022/01/29 01:11:49;;;;;;;8.55;4.70;;;22.90;35.70;;;;;;6063448;28;81209;-65
2022/01/29 01:14:50;;;;;;;8.75;5.00;;;22.90;35.90;;;;;;6062240;28;81499;-65
2022/01/29 01:17:51;;;;;;;7.65;4.55;;;22.90;36.70;;;;;;6063117;28;81102;-64
2022/01/29 01:20:51;;;;;;;7.40;4.32;;;22.90;36.60;;;;;;6055052;28;81001;-64
2022/01/29 01:23:51;;;;;;;9.07;4.25;;;22.90;36.40;;;;;;6064902;28;80561;-64
2022/01/29 01:26:52;;;;;;;8.88;4.75;;;22.90;36.80;;;;;;6055334;28;81549;-64
2022/01/29 01:29:53;;;;;;;8.18;4.40;;;22.90;36.90;;;;;;6064354;28;81578;-64
2022/01/29 01:32:53;;;;;;;9.25;4.80;;;22.80;36.90;;;;;;6056323;28;80490;-64
2022/01/29 01:35:59;;;;;;;7.60;4.28;;;22.80;36.40;;;;;;6060023;28;81302;-64
2022/01/29 01:39:05;;;;;;;8.35;4.40;;;22.80;35.90;;;;;;6059785;28;80351;-63
2022/01/29 01:42:07;;;;;;;;;;;22.80;35.90;;;;;;6061475;28;80715;-64
2022/01/29 01:45:07;;;;;;;8.52;4.03;;;22.80;36.40;;;;;;6071680;28;80323;-64
2022/01/29 01:48:08;;;;;;;7.85;4.30;;;22.80;35.70;;;;;;6061919;28;80088;-63
2022/01/29 01:51:08;;;;;;;8.48;4.55;;;22.80;35.90;;;;;;6063511;28;80712;-64
2022/01/29 01:54:09;;;;;;;11.63;4.47;;;22.80;35.90;;;;;;6062792;28;80787;-64
2022/01/29 01:57:09;;;;;;;7.28;4.10;;;22.80;36.00;;;;;;6062651;28;80752;-63
2022/01/29 02:00:10;;;;;;;8.20;3.97;;;22.70;36.10;;;;;;6063985;28;82945;-63
2022/01/29 02:03:13;;;;;;;8.07;3.70;;;22.70;36.00;;;;;;6059555;28;80678;-64
2022/01/29 02:06:14;;;;;;;7.20;4.18;;;22.70;36.50;;;;;;6063816;28;81986;-63
2022/01/29 02:09:16;;;;;;;7.30;4.05;;;22.70;36.00;;;;;;6061757;28;80370;-64
2022/01/29 02:12:17;;;;;;;7.60;3.70;;;22.60;36.50;;;;;;6058319;28;80666;-63
2022/01/29 02:15:18;;;;;;;8.98;3.70;;;22.60;36.50;;;;;;6062791;28;80395;-64
2022/01/29 02:18:18;;;;;;;11.55;4.65;;;22.60;36.40;;;;;;6063153;28;80687;-64
2022/01/29 02:21:19;;;;;;;8.75;3.80;;;22.60;36.70;;;;;;6054992;28;80449;-64
2022/01/29 02:24:19;;;;;;;8.27;4.18;;;22.60;37.00;;;;;;6047302;28;81169;-64
2022/01/29 02:27:20;;;;;;;8.82;3.63;;;22.50;36.50;;;;;;6060169;28;80422;-64
2022/01/29 02:30:20;;;;;;;7.72;3.85;;;22.50;36.50;;;;;;6063105;28;81362;-63
2022/01/29 02:33:21;;;;;;;7.63;3.58;;;22.50;37.10;;;;;;6062883;28;80711;-64
2022/01/29 02:36:21;;;;;;;7.25;4.05;;;22.50;36.40;;;;;;6055507;28;80410;-64
2022/01/29 02:39:22;;;;;;;5.43;3.30;;;22.50;36.50;;;;;;6066698;28;81239;-64
2022/01/29 02:42:22;;;;;;;6.05;3.55;;;22.50;36.60;;;;;;6073745;28;80536;-64
2022/01/29 02:45:27;;;;;;;6.57;2.97;;;22.50;36.60;;;;;;6061964;28;80522;-64
2022/01/29 02:48:29;;;;;;;6.15;3.47;;;22.50;36.50;;;;;;6055748;28;80398;-64
2022/01/29 02:51:29;;;;;;;6.82;3.55;;;22.50;36.50;;;;;;6060933;28;81579;-64
2022/01/29 02:54:30;;;;;;;5.30;3.15;;;22.50;36.40;;;;;;6058444;28;80518;-64
2022/01/29 02:57:30;;;;;;;7.03;3.83;;;22.50;36.30;;;;;;6061897;28;80792;-64
2022/01/29 03:00:31;;;;;;;6.43;3.47;;;22.50;36.30;;;;;;6059422;28;81737;-64
2022/01/29 03:03:31;;;;;;;6.07;3.50;;;22.40;36.30;;;;;;6062358;28;80912;-63
2022/01/29 03:06:33;;;;;;;5.75;3.17;;;22.50;36.30;;;;;;6054359;28;83444;-64
2022/01/29 03:09:33;;;;;;;5.70;3.38;;;22.40;36.30;;;;;;6059243;28;82955;-63
2022/01/29 03:12:33;;;;;;;8.90;3.85;;;22.40;36.30;;;;;;6042052;28;80591;-63
2022/01/29 03:15:34;;;;;;;7.13;3.50;;;22.40;36.30;;;;;;6058720;28;82154;-63
2022/01/29 03:18:34;;;;;;;8.18;3.83;;;22.40;36.40;;;;;;6059705;28;80719;-63
2022/01/29 03:21:35;;;;;;;6.28;3.60;;;22.40;36.30;;;;;;6055198;28;83539;-63
2022/01/29 03:24:35;;;;;;;6.22;3.50;;;22.40;36.20;;;;;;6061133;28;80620;-63
2022/01/29 03:27:36;;;;;;;6.50;3.67;;;22.40;36.60;;;;;;6064279;28;80733;-63
2022/01/29 03:30:37;;;;;;;6.93;3.50;;;22.40;36.80;;;;;;6053272;28;80287;-63
2022/01/29 03:33:37;;;;;;;6.28;3.58;;;22.40;36.80;;;;;;6070599;28;80432;-63
2022/01/29 03:36:38;;;;;;;4.05;2.80;;;22.40;36.90;;;;;;6069564;28;81431;-64
2022/01/29 03:39:39;;;;;;;8.55;3.47;;;22.40;36.90;;;;;;6068822;28;81725;-64
2022/01/29 03:42:46;;;;;;;7.05;3.78;;;22.40;36.90;;;;;;6066103;28;80600;-63
2022/01/29 03:45:46;;;;;;;7.38;3.47;;;22.30;37.00;;;;;;6069000;28;81742;-63
2022/01/29 03:48:47;;;;;;;7.30;3.60;;;22.40;37.00;;;;;;6068375;28;80374;-63
2022/01/29 03:51:47;;;;;;;6.22;3.50;;;22.30;36.80;;;;;;6065089;28;80646;-63
2022/01/29 03:54:47;;;;;;;8.77;4.38;;;22.30;37.00;;;;;;6069089;28;80314;-64
2022/01/29 03:57:48;;;;;;;8.55;3.45;;;22.30;37.00;;;;;;6074075;28;80509;-63
2022/01/29 04:00:48;;;;;;;6.38;3.58;;;22.30;36.90;;;;;;6061200;28;80385;-63
2022/01/29 04:03:49;;;;;;;7.22;4.03;;;22.30;37.10;;;;;;6067433;28;80504;-63
2022/01/29 04:06:50;;;;;;;7.35;3.75;;;22.30;37.00;;;;;;6063227;28;80966;-63
2022/01/29 04:09:52;;;;;;;7.22;3.47;;;22.30;37.10;;;;;;6055542;28;80433;-63
2022/01/29 04:12:53;;;;;;;6.50;3.42;;;22.30;37.20;;;;;;6070734;28;80458;-63
2022/01/29 04:15:54;;;;;;;6.95;3.40;;;22.30;36.90;;;;;;6071941;28;80576;-63
2022/01/29 04:18:54;;;;;;;9.60;4.03;;;22.30;36.90;;;;;;6068266;28;81494;-63
2022/01/29 04:21:55;;;;;;;6.55;3.75;;;22.30;37.00;;;;;;6059016;28;80402;-63
2022/01/29 04:24:55;;;;;;;7.13;3.47;;;22.30;36.90;;;;;;6060767;28;80387;-63
2022/01/29 04:27:56;;;;;;;8.60;4.13;;;22.30;36.90;;;;;;6069590;28;80936;-63
2022/01/29 04:31:01;;;;;;;6.10;3.55;;;22.30;36.60;;;;;;6053734;28;80468;-63
2022/01/29 04:34:01;;;;;;;9.20;4.47;;;22.30;36.60;;;;;;6065973;28;84494;-63
2022/01/29 04:37:02;;;;;;;8.25;3.75;;;22.30;36.60;;;;;;6062318;28;80619;-63
2022/01/29 04:40:02;;;;;;;6.70;3.33;;;22.30;36.60;;;;;;6055617;28;80511;-63
2022/01/29 04:43:03;;;;;;;6.60;4.03;;;22.30;36.60;;;;;;6060262;28;80596;-64
2022/01/29 04:46:03;;;;;;;6.07;4.00;;;22.30;36.50;;;;;;6054153;28;81731;-64
2022/01/29 04:49:04;;;;;;;6.93;3.90;;;22.30;36.50;;;;;;6055519;28;80515;-64
2022/01/29 04:52:04;;;;;;;8.02;3.88;;;22.30;36.70;;;;;;6049685;28;80827;-64
2022/01/29 04:55:05;;;;;;;6.78;3.53;;;22.30;36.70;;;;;;6071458;28;80346;-64
2022/01/29 04:58:05;;;;;;;8.80;4.13;;;22.30;36.60;;;;;;6062272;28;80812;-64
2022/01/29 05:01:06;;;;;;;8.57;3.92;;;22.30;36.80;;;;;;6052728;28;80979;-64
2022/01/29 05:04:06;;;;;;;8.50;3.90;;;22.30;36.80;;;;;;6064463;28;81910;-64
2022/01/29 05:07:07;;;;;;;9.70;4.05;;;22.30;36.70;;;;;;6053477;28;80963;-64
2022/01/29 05:10:07;;;;;;;9.93;4.15;;;22.30;36.70;;;;;;6065725;28;81053;-64
2022/01/29 05:13:11;;;;;;;7.35;3.90;;;22.30;36.60;;;;;;6060077;28;81540;-64
2022/01/29 05:29:19;;;;;;;7.15;3.95;;;22.20;36.80;;;;;;6062952;28;80750;-64
2022/01/29 05:32:22;;;;;;;7.63;4.15;;;22.20;36.80;;;;;;6064423;28;81514;-63
2022/01/29 05:35:22;;;;;;;7.68;4.28;;;22.20;36.80;;;;;;6059549;28;80448;-64
2022/01/29 05:38:23;;;;;;;9.65;4.72;;;22.20;36.90;;;;;;6060250;28;83553;-64
2022/01/29 05:41:23;;;;;;;8.20;4.00;;;22.30;36.80;;;;;;6045813;28;80763;-63
2022/01/29 05:44:24;;;;;;;9.10;4.07;;;22.30;36.60;;;;;;6062726;28;80516;-63
2022/01/29 05:47:24;;;;;;;7.95;3.85;;;22.30;36.90;;;;;;6063730;28;81534;-65
2022/01/29 05:50:25;;;;;;;7.57;3.60;;;22.30;38.60;;;;;;6053315;28;82988;-64
2022/01/29 05:53:25;;;;;;;9.23;4.15;;;22.40;39.90;;;;;;6059630;28;80670;-65
2022/01/29 05:56:26;;;;;;;9.55;4.22;;;22.40;38.70;;;;;;6056360;28;81320;-65
2022/01/29 05:59:26;;;;;;;8.25;4.40;;;22.40;38.30;;;;;;6055491;28;80600;-65
2022/01/29 06:02:27;;;;;;;6.22;3.60;;;22.40;38.40;;;;;;6061033;28;80892;-64
2022/01/29 06:05:27;;;;;;;8.48;3.85;;;22.40;38.10;;;;;;6061703;28;80913;-64
2022/01/29 06:08:28;;;;;;;8.98;4.03;;;22.40;38.40;;;;;;6058073;28;81501;-64
2022/01/29 06:11:28;;;;;;;8.48;3.85;;;22.40;38.20;;;;;;6056432;28;80408;-64
2022/01/29 06:14:29;;;;;;;10.38;4.68;;;22.50;37.90;;;;;;6062269;28;80248;-64
2022/01/29 06:17:29;;;;;;;6.75;3.70;;;22.50;37.90;;;;;;6054372;28;83163;-64
2022/01/29 06:20:30;;;;;;;7.53;4.00;;;22.50;38.10;;;;;;6059642;28;81595;-66
2022/01/29 06:23:32;;;;;;;6.75;3.63;;;22.60;38.10;;;;;;6061546;28;80145;-63
2022/01/29 06:26:35;;;;;;;7.18;3.88;;;22.50;38.40;;;;;;6057873;28;81437;-64
2022/01/29 06:29:42;;;;;;;7.55;3.78;;;22.50;39.70;;;;;;6060758;28;80467;-64
2022/01/29 06:32:42;;;;;;;7.22;3.70;;;22.60;39.20;;;;;;6062211;28;86547;-63
2022/01/29 06:35:43;;;;;;;10.98;4.55;;;22.60;39.70;;;;;;6061709;28;81003;-62
2022/01/29 06:38:43;;;;;;;6.70;3.42;;;22.60;39.80;;;;;;6053540;28;81815;-63
2022/01/29 06:41:44;;;;;;;8.30;3.92;;;22.60;40.40;;;;;;6061375;28;80447;-62
2022/01/29 06:44:44;;;;;;;8.27;3.65;;;22.60;40.20;;;;;;6059419;28;83048;-63
2022/01/29 06:47:45;;;;;;;6.60;3.45;;;22.60;42.10;;;;;;6062561;28;80667;-62
2022/01/29 06:50:45;;;;;;;8.32;4.28;;;22.60;41.60;;;;;;6064646;28;80988;-63
2022/01/29 06:53:46;;;;;;;6.88;4.18;;;22.60;41.80;;;;;;6061703;28;81384;-64
2022/01/29 06:56:46;;;;;;;6.18;3.63;;;22.60;42.70;;;;;;6045497;28;81063;-63
2022/01/29 06:59:47;;;;;;;7.05;3.78;;;22.60;42.00;;;;;;6061482;28;80949;-64
2022/01/29 07:02:47;;;;;;;7.63;3.65;;;22.60;42.40;;;;;;6062932;28;80568;-64
2022/01/29 07:05:49;;;;;;;6.80;3.90;;;22.60;42.00;;;;;;6065905;28;81007;-63
2022/01/29 07:08:50;;;;;;;8.88;3.95;;;22.60;42.10;;;;;;6061020;28;80748;-62
2022/01/29 07:11:56;;;;;;;6.95;3.80;;;22.60;42.50;;;;;;6056105;28;80920;-63
2022/01/29 07:14:56;;;;;;;10.90;4.57;;;22.60;42.80;;;;;;6061190;28;80793;-63
2022/01/29 07:17:57;;;;;;;8.52;4.70;;;22.60;42.20;;;;;;6059039;28;80203;-62
2022/01/29 07:20:57;;;;;;;7.75;4.18;;;22.60;41.60;;;;;;6059876;28;80418;-62
2022/01/29 07:23:58;;;;;;;9.30;4.55;;;22.70;41.20;;;;;;6054569;28;80447;-64
2022/01/29 07:26:58;;;;;;;10.27;5.15;;;22.70;41.30;;;;;;6059171;28;80515;-63
2022/01/29 07:29:59;;;;;;;11.98;5.75;;;22.70;41.10;;;;;;6047399;28;80884;-63
2022/01/29 07:32:59;;;;;;;9.77;4.90;;;22.80;40.80;;;;;;6061112;28;80525;-63
2022/01/29 07:36:00;;;;;;;10.13;4.93;;;22.80;40.80;;;;;;6061824;28;81332;-63
2022/01/29 07:39:00;;;;;;;12.30;5.47;;;22.90;40.50;;;;;;6051190;28;80628;-64
2022/01/29 07:42:02;;;;;;;6.95;4.32;;;22.70;41.20;;;;;;6061556;28;80256;-63
2022/01/29 07:45:04;;;;;;;6.13;3.47;;;22.40;43.00;;;;;;6038140;28;83105;-63
2022/01/29 07:48:04;;;;;;;5.47;3.22;;;22.40;44.00;;;;;;6055106;28;80943;-63
2022/01/29 07:51:05;;;;;;;6.05;3.17;;;22.20;45.30;;;;;;6050486;28;80699;-64
2022/01/29 07:54:05;;;;;;;7.07;3.13;;;22.30;45.30;;;;;;6054217;28;80663;-63
2022/01/29 07:57:06;;;;;;;5.57;2.65;;;22.20;45.60;;;;;;6055869;28;80601;-64
2022/01/29 08:00:06;;;;;;;5.65;2.60;;;22.30;46.30;;;;;;6061323;28;87166;-63
2022/01/29 08:03:14;;;;;;;5.65;2.67;;;22.40;45.80;;;;;;6053595;28;80415;-63
2022/01/29 08:06:14;;;;;;;6.72;2.65;;;22.50;45.70;;;;;;6062384;28;80433;-66
2022/01/29 08:09:15;;;;;;;5.30;2.90;;;22.60;45.90;;;;;;6055916;28;80645;-66
2022/01/29 08:12:16;;;;;;;4.63;2.65;;;22.70;45.80;;;;;;6064305;28;80508;-66
2022/01/29 08:15:16;;;;;;;5.88;2.97;;;22.70;45.80;;;;;;6057189;28;81009;-65
2022/01/29 08:18:17;;;;;;;6.68;2.72;;;22.70;45.90;;;;;;6058995;28;81950;-64
2022/01/29 08:21:17;;;;;;;7.05;3.05;;;22.80;45.50;;;;;;6047392;28;80527;-64
2022/01/29 08:24:18;;;;;;;5.57;2.85;;;23.00;44.70;;;;;;6054416;28;81373;-64
2022/01/29 08:27:18;;;;;;;6.68;3.03;;;23.10;43.40;;;;;;6055318;28;80993;-65
2022/01/29 08:30:19;;;;;;;6.78;3.15;;;23.10;43.10;;;;;;6064082;28;80273;-64
2022/01/29 08:33:19;;;;;;;5.75;3.22;;;23.10;43.40;;;;;;6062445;28;80668;-64
2022/01/29 08:36:20;;;;;;;9.10;3.40;;;23.10;42.60;;;;;;6064155;28;80563;-63
2022/01/29 08:39:20;;;;;;;7.78;3.65;;;23.10;42.40;;;;;;6066301;28;81780;-66
2022/01/29 08:42:21;;;;;;;8.80;4.07;;;23.10;42.50;;;;;;6052466;28;81581;-66
2022/01/29 08:45:21;;;;;;;10.20;3.95;;;23.10;41.80;;;;;;6059024;28;80871;-64
2022/01/29 08:48:22;;;;;;;8.30;3.88;;;23.10;41.80;;;;;;6064740;28;80733;-64
2022/01/29 08:51:23;;;;;;;9.00;3.95;;;23.10;41.80;;;;;;6054662;28;81354;-66
2022/01/29 08:54:23;;;;;;;8.48;4.10;;;23.20;41.70;;;;;;6066292;28;80492;-64
2022/01/29 08:57:24;;;;;;;8.15;4.20;;;23.20;41.20;;;;;;6065142;28;81762;-63
2022/01/29 09:00:24;;;;;;;6.80;4.20;;;23.20;41.40;;;;;;6064886;28;81256;-64
2022/01/29 09:03:25;;;;;;;15.48;4.38;;;23.20;40.10;;;;;;6061534;28;80571;-64
2022/01/29 09:06:25;;;;;;;9.25;4.43;;;23.30;40.00;;;;;;6067381;28;80515;-64
2022/01/29 09:09:26;;;;;;;10.77;4.32;;;23.40;39.20;;;;;;6063531;28;80554;-64
2022/01/29 09:12:27;;;;;;;12.30;4.63;;;23.50;38.70;;;;;;6063934;28;80895;-64
2022/01/29 09:15:27;;;;;;;9.32;4.32;;;23.50;38.50;;;;;;6054576;28;82967;-65
2022/01/29 09:18:28;;;;;;;7.68;3.63;;;23.60;39.10;;;;;;6049761;28;80459;-64
2022/01/29 09:21:28;;;;;;;12.60;5.10;;;23.60;37.80;;;;;;6063828;28;80529;-64
2022/01/29 09:24:29;;;;;;;7.38;4.00;;;23.70;37.90;;;;;;6064703;28;81634;-64
2022/01/29 09:27:29;;;;;;;9.88;4.07;;;23.80;37.50;;;;;;6056587;28;80451;-64
2022/01/29 09:30:30;;;;;;;8.48;4.22;;;23.90;37.40;;;;;;6062933;28;80323;-64
2022/01/29 09:33:30;;;;;;;8.10;4.13;;;23.90;38.30;;;;;;6065219;28;80426;-63
2022/01/29 09:36:31;;;;;;;9.00;4.07;;;23.90;38.10;;;;;;6063724;28;80400;-64
2022/01/29 09:39:31;;;;;;;10.68;4.32;;;23.90;37.80;;;;;;6060893;28;82122;-64
2022/01/29 09:42:32;;;;;;;7.35;3.78;;;24.00;37.60;;;;;;6020692;28;83699;-63
2022/01/29 09:45:32;;;;;;;8.43;4.07;;;24.00;37.40;;;;;;6062083;28;80965;-63
2022/01/29 09:48:33;;;;;;;8.82;4.10;;;24.00;37.00;;;;;;6059516;28;80732;-63
2022/01/29 09:51:33;;;;;;;9.10;4.10;;;24.00;36.60;;;;;;6050301;28;80532;-64
2022/01/29 09:54:34;;;;;;;6.60;3.88;;;24.10;36.20;;;;;;6064139;28;80486;-64
2022/01/29 09:57:34;;;;;;;7.43;4.35;;;24.10;35.90;;;;;;6054057;28;80573;-64
2022/01/29 10:00:35;;;;;;;6.55;3.50;;;24.10;35.50;;;;;;6062212;28;81824;-63
2022/01/29 10:03:36;;;;;;;55.38;23.92;;;24.10;35.20;;;;;;6063388;28;80617;-64
2022/01/29 10:06:37;;;;;;;71.05;32.70;;;24.10;35.40;;;;;;6057100;28;82891;-64
2022/01/29 10:09:37;;;;;;;96.72;42.95;;;24.20;35.30;;;;;;6055465;28;83434;-63
2022/01/29 10:12:38;;;;;;;140.13;63.50;;;24.20;35.10;;;;;;6059445;28;84290;-64
2022/01/29 10:15:38;;;;;;;128.45;59.72;;;24.30;34.60;;;;;;6058843;28;84384;-64
2022/01/29 10:18:39;;;;;;;143.50;66.32;;;24.40;34.60;;;;;;6059662;28;83105;-63
2022/01/29 10:21:41;;;;;;;161.43;72.82;;;24.40;34.50;;;;;;6041935;28;83517;-65
2022/01/29 10:24:41;;;;;;;161.23;72.53;;;24.40;34.30;;;;;;6047933;28;83154;-65
2022/01/29 10:27:42;;;;;;;135.98;61.55;;;24.40;33.90;;;;;;6040931;28;83444;-64
2022/01/29 10:30:42;;;;;;;109.05;51.03;;;24.50;34.00;;;;;;6058996;28;82791;-64
2022/01/29 10:33:43;;;;;;;94.88;44.17;;;24.50;33.50;;;;;;6057417;28;84353;-64
2022/01/29 10:36:44;;;;;;;92.10;40.22;;;24.40;33.50;;;;;;6059634;28;83861;-64
2022/01/29 10:39:44;;;;;;;77.80;34.25;;;24.40;33.10;;;;;;6049469;28;82957;-64
2022/01/29 10:42:45;;;;;;;54.47;26.13;;;24.30;32.90;;;;;;6048347;28;83137;-65
2022/01/29 10:45:45;;;;;;;43.55;21.20;;;24.30;32.70;;;;;;6057080;28;84337;-64
2022/01/29 10:48:46;;;;;;;44.30;18.98;;;24.20;33.10;;;;;;6049926;28;83556;-64
2022/01/29 10:51:46;;;;;;;30.95;15.05;;;24.10;33.10;;;;;;6055390;28;83146;-66
2022/01/29 10:54:48;;;;;;;26.60;12.85;;;24.10;32.70;;;;;;6057754;28;83502;-64
2022/01/29 10:57:48;;;;;;;24.63;11.57;;;24.00;32.50;;;;;;6060744;28;83211;-64
2022/01/29 11:00:51;;;;;;;23.52;11.02;;;24.00;32.20;;;;;;6052280;28;85341;-65
2022/01/29 11:03:54;;;;;;;18.23;9.10;;;24.00;32.20;;;;;;6058459;28;90483;-65
2022/01/29 11:06:56;;;;;;;20.90;8.20;;;23.90;32.40;;;;;;6061559;28;82689;-64
2022/01/29 11:09:57;;;;;;;18.90;8.18;;;23.90;32.70;;;;;;6041145;28;84141;-63
2022/01/29 11:12:58;;;;;;;20.77;7.97;;;23.90;32.40;;;;;;6059889;28;80482;-65
2022/01/29 11:15:58;;;;;;;13.98;6.82;;;23.90;32.60;;;;;;6062974;28;80989;-65
2022/01/29 11:18:59;;;;;;;22.90;6.70;;;23.80;32.60;;;;;;6063439;28;81422;-64
2022/01/29 11:21:59;;;;;;;12.93;4.93;;;23.80;33.10;;;;;;6061788;28;81079;-66
2022/01/29 11:25:00;;;;;;;17.25;5.90;;;23.70;32.80;;;;;;6064893;28;81308;-64
2022/01/29 11:28:00;;;;;;;11.98;5.93;;;23.60;33.80;;;;;;6051941;28;81648;-64
2022/01/29 11:31:01;;;;;;;7.80;4.63;;;23.60;34.30;;;;;;6062364;28;80492;-64
2022/01/29 11:34:02;;;;;;;14.88;5.18;;;23.60;34.70;;;;;;6055231;28;80255;-64
2022/01/29 11:37:03;;;;;;;14.07;4.50;;;23.60;34.80;;;;;;6061296;28;81817;-64
2022/01/29 11:40:03;;;;;;;16.50;5.43;;;23.60;36.40;;;;;;6061911;28;80864;-64
2022/01/29 11:43:07;;;;;;;9.65;4.28;;;23.60;36.20;;;;;;6062007;28;80363;-64
2022/01/29 11:46:15;;;;;;;12.98;4.70;;;23.60;37.80;;;;;;6054456;28;80551;-64
2022/01/29 11:49:15;;;;;;;11.32;4.60;;;23.60;37.70;;;;;;6053564;28;80679;-65
2022/01/29 11:52:15;;;;;;;14.73;4.80;;;23.60;39.60;;;;;;6056187;28;82001;-66
2022/01/29 11:55:16;;;;;;;15.82;5.00;;;23.60;40.60;;;;;;6044398;28;81067;-66
2022/01/29 11:58:17;;;;;;;26.45;7.25;;;23.50;41.70;;;;;;6057628;28;80539;-64
2022/01/29 12:01:17;;;;;;;27.38;9.75;;;23.50;44.10;;;;;;6053630;28;80912;-65
2022/01/29 12:04:18;;;;;;;34.60;11.27;;;23.50;45.70;;;;;;6056193;28;80244;-64
2022/01/29 12:10:24;;;;;;;41.60;12.38;;;23.40;46.80;;;;;;6056842;28;83404;-64
2022/01/29 12:13:25;;;;;;;36.25;11.43;;;23.40;47.20;;;;;;6045206;28;84180;-64
2022/01/29 12:16:25;;;;;;;26.20;10.52;;;23.40;46.90;;;;;;6059469;28;83672;-64
2022/01/29 12:19:26;;;;;;;21.23;8.48;;;23.40;48.00;;;;;;6052103;28;83189;-63
2022/01/29 12:22:26;;;;;;;23.67;7.47;;;23.30;47.10;;;;;;6059894;28;84099;-65
2022/01/29 12:25:27;;;;;;;20.52;7.00;;;23.40;47.30;;;;;;6038553;28;80538;-63
2022/01/29 12:28:28;;;;;;;18.77;5.88;;;23.30;47.40;;;;;;6065068;28;80596;-64
2022/01/29 12:31:28;;;;;;;22.00;6.90;;;23.20;47.50;;;;;;6067775;28;81380;-64
2022/01/29 12:34:29;;;;;;;17.63;5.88;;;23.20;47.80;;;;;;6070946;28;80284;-65
2022/01/29 12:37:29;;;;;;;10.57;5.07;;;23.20;47.80;;;;;;6059683;28;81375;-64
2022/01/29 12:40:36;;;;;;;10.15;4.18;;;23.10;48.10;;;;;;6057426;28;80965;-64
2022/01/29 12:43:51;;;;;;;7.72;3.30;;;22.90;48.60;;;;;;6062980;28;81410;-66
2022/01/29 12:46:51;;;;;;;8.50;3.45;;;22.90;49.20;;;;;;6061946;28;81671;-65
2022/01/29 12:49:52;;;;;;;4.78;2.60;;;22.90;49.50;;;;;;6054940;28;80496;-65
2022/01/29 12:52:52;;;;;;;13.50;3.88;;;23.00;49.70;;;;;;6054665;28;81439;-65
2022/01/29 12:55:53;;;;;;;9.40;3.72;;;23.10;49.00;;;;;;6062753;28;80948;-65
2022/01/29 12:58:53;;;;;;;13.65;3.70;;;23.20;48.40;;;;;;6050709;28;81617;-62
2022/01/29 13:01:56;;;;;;;7.38;2.92;;;23.20;47.70;;;;;;6055126;28;81393;-62
2022/01/29 13:04:57;;;;;;;15.10;3.97;;;23.20;47.20;;;;;;6062508;28;81694;-62
2022/01/29 13:08:02;;;;;;;9.93;3.45;;;23.20;46.70;;;;;;6053883;28;81656;-63
2022/01/29 13:11:06;;;;;;;8.52;3.25;;;23.20;46.00;;;;;;6052868;28;80461;-65
2022/01/29 13:14:11;;;;;;;6.35;3.53;;;23.20;46.10;;;;;;6054426;28;80449;-64
2022/01/29 13:17:16;;;;;;;8.77;3.20;;;23.20;45.40;;;;;;6036915;28;81773;-65
2022/01/29 13:20:17;;;;;;;8.20;3.38;;;23.20;44.80;;;;;;6057542;28;80310;-65
2022/01/29 13:23:17;;;;;;;6.72;3.20;;;23.20;44.50;;;;;;6064519;28;81179;-65
2022/01/29 13:26:18;;;;;;;7.03;3.33;;;23.20;44.50;;;;;;6058557;28;81547;-64
2022/01/29 13:29:27;;;;;;;5.13;2.75;;;23.20;44.30;;;;;;6055714;28;81488;-64
2022/01/29 13:32:27;;;;;;;8.45;3.63;;;23.20;44.00;;;;;;6055340;28;80451;-65
2022/01/29 13:35:29;;;;;;;13.48;3.65;;;23.20;43.80;;;;;;6049206;28;80372;-65
2022/01/29 13:38:33;;;;;;;10.05;3.15;;;23.20;43.90;;;;;;6036732;28;81404;-64
2022/01/29 13:41:34;;;;;;;5.82;2.83;;;23.20;43.90;;;;;;6062756;28;80962;-65
2022/01/29 13:44:37;;;;;;;8.18;2.60;;;23.10;43.90;;;;;;6035811;28;85093;-65
2022/01/29 13:47:38;;;;;;;6.15;3.03;;;23.10;43.80;;;;;;6055123;28;80450;-63
2022/01/29 13:50:38;;;;;;;7.70;2.70;;;23.10;43.60;;;;;;6052424;28;80699;-65
2022/01/29 13:53:39;;;;;;;7.47;2.95;;;23.00;43.20;;;;;;6052120;28;80395;-65
2022/01/29 13:56:39;;;;;;;7.63;2.83;;;23.00;43.20;;;;;;6051451;28;80451;-65
2022/01/29 13:59:42;;;;;;;5.13;2.63;;;23.00;43.20;;;;;;6050951;28;81120;-65
2022/01/29 14:02:42;;;;;;;7.60;3.13;;;23.00;43.40;;;;;;6051701;28;80747;-65
2022/01/29 14:05:43;;;;;;;4.72;2.70;;;23.00;43.20;;;;;;6063833;28;80456;-65
2022/01/29 14:08:43;;;;;;;5.47;2.28;;;23.00;43.20;;;;;;6057894;28;80911;-64
2022/01/29 14:11:44;;;;;;;6.88;3.08;;;22.90;43.10;;;;;;6054894;28;80526;-65
2022/01/29 14:14:44;;;;;;;5.28;2.70;;;22.90;42.90;;;;;;6061936;28;80890;-64
2022/01/29 14:17:45;;;;;;;6.45;3.08;;;22.90;42.90;;;;;;6048812;28;80500;-64
2022/01/29 14:20:45;;;;;;;6.93;3.00;;;22.90;43.10;;;;;;6054641;28;80539;-64
2022/01/29 14:23:46;;;;;;;6.43;2.80;;;22.90;43.00;;;;;;6058714;28;83700;-64
2022/01/29 14:26:47;;;;;;;5.53;2.20;;;22.90;43.00;;;;;;6064176;28;81159;-63
2022/01/29 14:29:48;;;;;;;4.72;2.60;;;22.90;43.10;;;;;;6060034;28;83648;-63
2022/01/29 14:32:48;;;;;;;6.47;2.88;;;22.90;43.00;;;;;;6057809;28;80323;-65
2022/01/29 14:35:49;;;;;;;6.85;2.55;;;22.80;43.00;;;;;;6065277;28;80986;-64
2022/01/29 14:38:50;;;;;;;6.50;2.25;;;22.90;42.90;;;;;;6047040;28;81022;-65
2022/01/29 14:41:50;;;;;;;5.65;2.40;;;22.90;43.10;;;;;;6047596;28;80441;-65
2022/01/29 14:44:51;;;;;;;9.90;3.30;;;22.90;43.10;;;;;;6046837;28;80565;-65
2022/01/29 14:47:51;;;;;;;7.22;2.50;;;22.90;42.90;;;;;;6050848;28;80277;-65
2022/01/29 14:50:52;;;;;;;5.82;2.65;;;22.90;42.70;;;;;;6059736;28;80602;-64
2022/01/29 14:53:52;;;;;;;4.72;2.58;;;22.80;42.60;;;;;;6070096;28;80202;-63
2022/01/29 14:56:53;;;;;;;5.47;2.70;;;22.80;43.10;;;;;;6052891;28;81537;-63
2022/01/29 14:59:53;;;;;;;7.18;3.03;;;22.80;42.70;;;;;;6057247;28;80706;-63
2022/01/29 15:02:56;;;;;;;7.75;2.80;;;22.90;42.90;;;;;;6051962;28;80641;-62
2022/01/29 15:05:57;;;;;;;7.53;3.13;;;22.80;42.80;;;;;;6049235;28;80957;-62
2022/01/29 15:08:57;;;;;;;5.13;2.70;;;22.80;42.60;;;;;;6058048;28;81615;-63
2022/01/29 15:11:58;;;;;;;8.68;3.53;;;22.80;42.40;;;;;;6045098;28;80300;-62
2022/01/29 15:14:58;;;;;;;4.20;2.28;;;22.80;42.40;;;;;;6045414;28;81647;-62
2022/01/29 15:18:02;;;;;;;4.88;2.95;;;22.80;42.70;;;;;;6043128;28;82956;-62
2022/01/29 15:21:02;;;;;;;6.30;2.72;;;22.90;42.40;;;;;;6052896;28;81507;-62
2022/01/29 15:24:03;;;;;;;4.10;2.47;;;22.80;42.40;;;;;;6050610;28;80401;-62
2022/01/29 15:27:03;;;;;;;4.97;2.75;;;22.90;42.60;;;;;;6047559;28;80615;-63
2022/01/29 15:30:04;;;;;;;3.78;2.47;;;22.90;42.80;;;;;;6049753;28;81603;-62
2022/01/29 15:33:05;;;;;;;3.88;2.58;;;22.90;43.10;;;;;;6052798;28;80634;-63
2022/01/29 15:36:05;;;;;;;7.45;2.88;;;22.90;43.30;;;;;;6056064;28;80404;-62
2022/01/29 15:39:06;;;;;;;5.20;2.95;;;22.80;43.40;;;;;;6055032;28;80177;-62
2022/01/29 15:42:06;;;;;;;6.28;3.08;;;22.80;43.30;;;;;;6055760;28;80421;-63
2022/01/29 15:45:07;;;;;;;8.45;3.53;;;22.80;43.00;;;;;;6058503;28;80680;-64
2022/01/29 15:48:07;;;;;;;5.00;2.65;;;22.80;43.50;;;;;;6053666;28;80192;-63
2022/01/29 15:51:08;;;;;;;4.07;2.72;;;22.80;43.00;;;;;;6046555;28;80768;-64
2022/01/29 15:54:08;;;;;;;6.80;3.50;;;22.80;43.20;;;;;;6061664;28;82186;-64